Airfield :
LOGIN :

Register | Disclaimer

   EN    FR    IT 

 










Legend :    VFR   Marginal VFR   IFR   Intensive IFR   Very Intensive IFR
Visi :
Ceiling :
>= 8 km
>= 3000ft
5 to 8 km
1000 to 3000 ft
1500m to 5 km
500 to 1000 ft
800 to 1500m
200 to 500 ft
< 800m
< 200 ft
Symbols :   Thunderstorms  Fog  Heavy snow  Heavy precipitations  Wind > 20 kt
SIGMETs :     Misc.  Thunderstorms  Icing  Turbulence  Mountain Waves  Volcanic Ashes







- Airport Elevation : 238 ft
- IATA code : FAB
- Download approach charts


EGLF - Farnborough

CURRENT METAR :
  • 231950Z 06017KT CAVOK 08/03 Q1018

EXPIRED METARs :
  • 231920Z 06015KT 9999 FEW038 08/03 Q1018
  • 231850Z 06015KT 9999 FEW038 09/03 Q1018
  • 231820Z 06015KT 9999 FEW038 09/03 Q1017
  • 231750Z 07018KT 9999 FEW038 10/03 Q1017
  • 231720Z 08020G30KT 9999 FEW028 10/03 Q1016

TAF TAF EGLF
Valid from the 23 at 18:00 until the 23 at 22:00 UTC


231659Z 2318/2322 05015KT 9999 FEW045
TEMPO 2318/2320 06018G28KT
ATIS : +44 09063 800 400 (*282)
No reported NOTAMs for that airfield.
2 SIGMETs reported for the London FIR (EGTT) :
 
Severe turbulence
EGTT SIGMET 07 VALID 231900/232300 EGRR
EGTT LONDON FIR SEV TURB FCST WI N5107 E00200 - N5100 E00128 - N5046 E00128 - N4939 W00347 - N4914 W00555 - N5007 W00542 - N5115 E00200 - N5107 E00200 SFC/FL060 STNR WKN=
Severe turbulence
EGTT SIGMET 06 VALID 231900/232300 EGRR
EGTT LONDON FIR SEV TURB FCST WI N5220 W00530 - N5326 W00530 - N5500 W00024 - N5500 E00222 - N5429 E00333 - N5105 W00654 - N5147 W00631 - N5220 W00530 FL200/330 MOV SE 05KT NC=



MET'MAP, your aeronautical weather chart ! - Copyright ORBIFLY December 2007 - Disclaimer

ORBIFLY MET'MAP TEAM :

Programming & Development : Alexandra Zaïnal
Concept & Development : Baudouin d'Aumeries
Co-Development & Prog : Marc-Olivier Méhu
Technical & hardware support : Manuel Goepfert

Contact : metmap@orbifly.com




SOURCES & CREDITS :

   NOAA